Time;durP1;ratioP1;P1;durP2;ratioP2;P2;SDS_P1;SDS_P2;PMS_P1;PMS_P2;Temp;Humidity;BMP_temperature;BMP_pressure;BME280_temperature;BME280_humidity;BME280_pressure;Samples;Min_cycle;Max_cycle;Signal;HPM_P1;HPM_P2
2022/08/28 00:00:15;;;;;;;7.53;3.50;;;;;;;19.14;71.47;101017.94;4939464;29;20052;-81
2022/08/28 00:02:42;;;;;;;10.45;3.53;;;;;;;19.11;71.31;101018.34;4941055;29;20051;-81
2022/08/28 00:05:10;;;;;;;6.75;3.63;;;;;;;19.10;71.63;101017.53;4940395;29;20060;-80
2022/08/28 00:07:37;;;;;;;9.05;3.78;;;;;;;19.09;71.58;101020.38;4940448;29;20150;-82
2022/08/28 00:10:08;;;;;;;7.70;3.42;;;;;;;19.10;71.84;101028.16;4941923;29;20051;-81
2022/08/28 00:12:36;;;;;;;7.75;3.60;;;;;;;19.07;71.88;101025.06;4939950;29;20484;-85
2022/08/28 00:15:03;;;;;;;8.05;3.28;;;;;;;19.08;71.97;101029.38;4940819;29;20176;-84
2022/08/28 00:17:30;;;;;;;10.25;3.30;;;;;;;19.01;71.86;101017.94;4921198;29;20083;-82
2022/08/28 00:19:59;;;;;;;9.10;3.63;;;;;;;19.05;71.83;101021.81;4923424;29;20497;-81
2022/08/28 00:22:28;;;;;;;8.52;3.50;;;;;;;18.92;71.94;101033.22;4923529;29;20108;-79
2022/08/28 00:24:55;;;;;;;7.50;3.45;;;;;;;18.96;71.64;101038.94;4924091;29;20056;-80
2022/08/28 00:30:08;;;;;;;8.02;3.22;;;;;;;18.81;71.57;101037.28;4946121;29;20086;-80
2022/08/28 00:32:35;;;;;;;13.73;3.80;;;;;;;18.84;71.44;101039.53;4944624;29;20043;-81
2022/08/28 00:35:01;;;;;;;11.30;3.47;;;;;;;18.82;71.39;101041.56;4943686;29;20052;-83
2022/08/28 00:37:28;;;;;;;10.10;3.78;;;;;;;18.77;71.53;101041.34;4945204;29;20054;-82
2022/08/28 00:39:55;;;;;;;9.10;3.33;;;;;;;18.80;71.59;101043.59;4945798;29;20449;-83
2022/08/28 00:42:23;;;;;;;7.45;3.72;;;;;;;18.78;71.57;101040.34;4944965;29;20548;-82
2022/08/28 00:44:50;;;;;;;9.93;3.40;;;;;;;18.80;71.41;101046.25;4945255;29;20052;-82
2022/08/28 00:47:17;;;;;;;9.50;3.80;;;;;;;18.77;71.29;101045.84;4944148;29;20066;-81
2022/08/28 00:49:48;;;;;;;5.47;2.97;;;;;;;18.72;71.53;101038.47;4945967;29;20056;-81
2022/08/28 00:52:14;;;;;;;6.78;2.83;;;;;;;18.71;71.48;101052.75;4945689;29;20083;-80
2022/08/28 00:54:46;;;;;;;10.65;3.38;;;;;;;18.65;71.70;101053.53;4946771;29;20052;-80
2022/08/28 00:57:26;;;;;;;6.50;2.90;;;;;;;18.58;71.91;101045.53;4946677;29;20051;-80
2022/08/28 00:59:53;;;;;;;8.18;3.15;;;;;;;18.57;72.02;101043.06;4946641;29;20109;-80
2022/08/28 01:02:20;;;;;;;6.28;3.20;;;;;;;18.60;71.82;101045.34;4945104;29;20052;-82
2022/08/28 01:04:51;;;;;;;8.90;3.67;;;;;;;18.53;72.05;101052.44;5055124;23;20119;-76
2022/08/28 01:07:22;;;;;;;7.05;3.03;;;;;;;18.38;72.24;101025.28;4916326;29;20056;-78
2022/08/28 01:09:53;;;;;;;10.05;5.20;;;;;;;18.52;72.22;101051.63;4916194;29;20060;-76
2022/08/28 01:12:24;;;;;;;8.52;3.40;;;;;;;18.40;72.50;101034.66;4917357;29;20076;-78
2022/08/28 01:14:54;;;;;;;9.05;3.33;;;;;;;18.38;72.59;101031.41;4919613;29;20056;-76
2022/08/28 01:17:23;;;;;;;7.90;3.60;;;;;;;18.37;72.46;101028.94;4918886;29;20457;-77
2022/08/28 01:19:57;;;;;;;9.82;3.55;;;;;;;18.31;72.46;101029.72;4918633;29;20402;-77
2022/08/28 01:22:29;;;;;;;8.32;3.33;;;;;;;18.44;72.47;101046.47;4918545;29;20048;-77
2022/08/28 01:25:02;;;;;;;8.07;3.40;;;;;;;18.32;72.56;101048.06;4911813;29;20104;-78
2022/08/28 01:27:29;;;;;;;10.80;3.67;;;;;;;18.38;72.78;101055.25;4901615;29;20573;-76
2022/08/28 01:29:59;;;;;;;8.98;3.33;;;;;;;18.37;72.78;101058.09;4918774;29;20056;-79
2022/08/28 01:32:37;;;;;;;8.07;3.33;;;;;;;18.37;72.69;101047.50;4901288;29;20083;-79
2022/08/28 01:35:08;;;;;;;5.75;2.88;;;;;;;18.26;72.34;101029.50;4899808;29;20049;-77
2022/08/28 01:37:59;;;;;;;11.07;3.85;;;;;;;18.43;72.64;101067.91;4899530;29;20059;-76
2022/08/28 01:40:35;;;;;;;7.72;3.40;;;;;;;18.26;72.87;101048.84;4910051;29;20103;-78
2022/08/28 01:43:13;;;;;;;7.63;3.30;;;;;;;18.26;73.01;101050.69;4917974;29;20071;-77
2022/08/28 01:45:41;;;;;;;9.05;4.10;;;;;;;18.33;72.96;101064.78;4913464;29;20100;-76
2022/08/28 01:48:08;;;;;;;7.45;3.13;;;;;;;18.14;73.31;101042.47;4899205;29;20285;-77
2022/08/28 01:50:36;;;;;;;11.27;4.13;;;;;;;18.26;73.23;101069.22;4909601;29;20467;-76
2022/08/28 01:53:05;;;;;;;9.52;3.92;;;;;;;18.22;73.41;101068.81;4917907;29;20508;-76
2022/08/28 01:55:36;;;;;;;11.38;3.85;;;;;;;18.12;73.58;101058.56;4917669;29;20052;-78
2022/08/28 01:58:07;;;;;;;9.63;4.00;;;;;;;17.94;73.70;101039.72;4918111;29;20612;-79
2022/08/28 02:00:35;;;;;;;9.70;3.78;;;;;;;17.95;73.90;101046.66;4911344;29;20048;-76
2022/08/28 02:03:01;;;;;;;14.70;4.07;;;;;;;17.85;74.29;101041.69;4917991;29;20052;-78
2022/08/28 02:05:31;;;;;;;10.80;4.20;;;;;;;17.88;74.03;101043.16;4917734;29;20536;-78
2022/08/28 02:07:58;;;;;;;9.75;3.60;;;;;;;17.98;74.00;101059.47;4918095;29;20091;-79
2022/08/28 02:10:27;;;;;;;8.40;3.80;;;;;;;17.92;74.29;101065.56;4918010;29;20151;-78
2022/08/28 02:12:56;;;;;;;10.50;3.47;;;;;;;17.85;74.10;101048.81;4917505;29;20556;-76
2022/08/28 02:15:24;;;;;;;12.63;3.75;;;;;;;17.93;74.13;101061.09;4918727;29;20084;-78
2022/08/28 02:17:51;;;;;;;9.02;3.80;;;;;;;17.87;74.52;101058.22;4923160;29;20108;-76
2022/08/28 02:20:18;;;;;;;9.73;3.85;;;;;;;17.82;74.61;101063.25;4921181;29;20127;-76
2022/08/28 02:22:46;;;;;;;7.63;3.22;;;;;;;17.81;74.90;101072.22;4918020;29;20080;-79
2022/08/28 02:25:13;;;;;;;13.85;4.20;;;;;;;17.77;75.16;101080.72;4918368;29;20099;-79
2022/08/28 02:27:41;;;;;;;9.35;3.90;;;;;;;17.77;74.76;101083.38;4917869;29;20135;-76
2022/08/28 02:30:12;;;;;;;9.02;3.88;;;;;;;17.83;74.87;101075.50;4908053;29;20108;-79
2022/08/28 02:32:38;;;;;;;13.30;4.22;;;;;;;17.80;75.05;101086.47;4917642;29;20138;-76
2022/08/28 02:35:06;;;;;;;10.43;4.20;;;;;;;17.79;74.97;101094.59;4917357;29;20439;-79
2022/08/28 02:37:32;;;;;;;8.80;3.80;;;;;;;17.81;74.98;101092.56;4917691;29;20536;-78
2022/08/28 02:39:59;;;;;;;12.13;4.18;;;;;;;17.80;74.87;101096.22;4909819;29;20095;-78
2022/08/28 02:42:27;;;;;;;9.63;3.92;;;;;;;17.80;74.99;101091.75;4898916;29;20088;-77
2022/08/28 02:44:54;;;;;;;8.98;4.65;;;;;;;17.77;75.08;101091.31;4899380;29;20061;-78
2022/08/28 02:47:22;;;;;;;10.50;4.05;;;;;;;17.77;75.40;101088.66;4907444;29;20128;-76
2022/08/28 02:49:48;;;;;;;9.00;3.90;;;;;;;17.74;75.14;101081.09;4898558;29;20140;-76
2022/08/28 02:52:15;;;;;;;12.60;4.18;;;;;;;17.76;74.69;101087.03;4899005;29;20493;-77
2022/08/28 02:54:42;;;;;;;13.48;3.90;;;;;;;17.75;75.08;101088.03;4901975;29;20464;-79
2022/08/28 02:57:09;;;;;;;8.32;3.85;;;;;;;17.73;75.13;101088.22;4918215;29;20083;-78
2022/08/28 02:59:36;;;;;;;14.82;4.55;;;;;;;17.67;75.35;101085.53;4918542;29;20477;-78
2022/08/28 03:02:05;;;;;;;9.68;4.22;;;;;;;17.63;75.30;101090.34;4918316;29;20056;-78
2022/08/28 03:04:34;;;;;;;8.48;4.60;;;;;;;17.63;75.05;101094.81;4913228;29;20433;-77
2022/08/28 03:07:01;;;;;;;8.98;4.28;;;;;;;17.63;75.07;101095.63;4899670;29;20095;-79
2022/08/28 03:09:28;;;;;;;9.80;4.68;;;;;;;17.58;75.04;101087.44;4898552;29;20143;-77
2022/08/28 03:11:55;;;;;;;11.73;5.35;;;;;;;17.51;75.02;101097.97;4899609;29;20131;-76
2022/08/28 03:14:22;;;;;;;15.38;4.70;;;;;;;17.51;75.04;101097.97;4909999;29;20509;-78
2022/08/28 03:16:49;;;;;;;13.32;5.35;;;;;;;17.47;75.08;101099.41;4903783;29;20060;-76
2022/08/28 03:19:16;;;;;;;11.90;5.18;;;;;;;17.44;75.05;101091.84;4897898;29;20049;-75
2022/08/28 03:22:02;;;;;;;9.70;5.05;;;;;;;17.32;75.20;101093.34;4901113;29;20488;-77
2022/08/28 03:24:28;;;;;;;15.38;4.78;;;;;;;17.23;75.58;101092.63;4902112;29;20049;-77
2022/08/28 03:26:55;;;;;;;17.38;5.78;;;;;;;17.15;75.78;101097.22;4902625;29;20071;-77
2022/08/28 03:29:21;;;;;;;9.57;5.10;;;;;;;17.04;76.34;101097.72;4899599;29;20509;-77
2022/08/28 03:31:48;;;;;;;13.32;5.43;;;;;;;16.96;76.73;101103.13;4911557;29;20513;-77
2022/08/28 03:34:15;;;;;;;11.30;5.55;;;;;;;16.84;77.26;101105.44;4916058;29;20135;-77
2022/08/28 03:36:42;;;;;;;12.80;6.60;;;;;;;16.74;77.80;101105.72;4916526;29;20131;-77
2022/08/28 03:39:10;;;;;;;14.50;6.25;;;;;;;16.67;77.93;101111.91;4917222;29;20095;-77
2022/08/28 03:41:37;;;;;;;16.80;6.05;;;;;;;16.63;78.02;101116.72;4916528;29;20130;-78
2022/08/28 03:44:04;;;;;;;14.15;5.70;;;;;;;16.54;78.46;101125.75;4915376;29;20080;-75
2022/08/28 03:46:32;;;;;;;12.15;5.32;;;;;;;16.46;78.66;101124.03;4916410;29;20083;-77
2022/08/28 03:49:00;;;;;;;10.68;5.60;;;;;;;16.40;78.93;101123.94;4901672;29;20061;-77
2022/08/28 03:51:29;;;;;;;15.05;6.00;;;;;;;16.30;79.07;101126.03;4898260;29;20454;-78
2022/08/28 03:53:57;;;;;;;13.57;6.78;;;;;;;16.25;79.59;101132.66;4897756;29;20084;-77
2022/08/28 03:56:27;;;;;;;17.65;5.97;;;;;;;16.21;79.71;101128.75;4897679;29;20525;-77
2022/08/28 03:58:56;;;;;;;14.18;6.00;;;;;;;16.16;79.80;101127.63;4897694;29;20060;-77
2022/08/28 04:01:23;;;;;;;12.95;6.20;;;;;;;16.09;80.23;101143.38;4907130;29;20528;-77
2022/08/28 04:03:50;;;;;;;15.07;6.05;;;;;;;16.04;80.36;101151.03;4915806;29;20497;-76
2022/08/28 04:06:18;;;;;;;14.60;6.22;;;;;;;16.03;80.71;101141.47;4915492;29;20123;-77
2022/08/28 04:08:45;;;;;;;16.65;6.63;;;;;;;16.04;80.69;101139.66;4914731;29;20062;-78
2022/08/28 04:11:12;;;;;;;13.98;5.78;;;;;;;16.03;80.80;101143.28;4896717;29;20052;-79
2022/08/28 04:13:40;;;;;;;16.70;5.70;;;;;;;16.04;80.68;101151.03;4896624;29;20095;-77
2022/08/28 04:16:10;;;;;;;11.70;5.80;;;;;;;16.00;80.91;101138.38;4905664;29;20054;-79
2022/08/28 04:18:38;;;;;;;13.50;5.78;;;;;;;15.99;81.02;101134.91;4915386;29;20058;-78
2022/08/28 04:21:07;;;;;;;14.20;5.90;;;;;;;15.99;80.87;101140.19;4915413;29;20513;-78
2022/08/28 04:23:35;;;;;;;17.48;6.00;;;;;;;15.99;81.03;101145.47;4915035;29;20134;-77
2022/08/28 04:26:04;;;;;;;16.73;6.45;;;;;;;16.00;81.07;101149.75;4914225;29;20072;-79
2022/08/28 04:28:31;;;;;;;11.32;5.93;;;;;;;15.94;81.19;101150.47;4914826;29;20486;-77
2022/08/28 04:30:59;;;;;;;16.90;6.88;;;;;;;15.88;81.43;101144.06;4909856;29;20060;-77
2022/08/28 04:33:27;;;;;;;15.18;5.97;;;;;;;15.88;81.66;101146.72;4897017;29;20461;-77
2022/08/28 04:35:55;;;;;;;15.18;5.85;;;;;;;15.92;81.46;101153.28;4895959;29;20131;-77
2022/08/28 04:38:22;;;;;;;10.30;5.30;;;;;;;15.89;81.58;101152.81;4895366;29;20060;-77
2022/08/28 04:40:49;;;;;;;12.63;6.13;;;;;;;15.88;81.64;101157.28;4908981;29;20098;-77
2022/08/28 04:43:15;;;;;;;18.33;6.68;;;;;;;15.88;81.75;101162.56;4914871;29;20060;-76
2022/08/28 04:45:44;;;;;;;11.90;5.72;;;;;;;15.90;81.71;101152.63;4897541;29;20553;-77
2022/08/28 04:48:13;;;;;;;16.40;7.55;;;;;;;15.87;81.82;101158.25;4903618;29;20103;-78
2022/08/28 04:50:40;;;;;;;13.68;6.20;;;;;;;15.84;81.97;101153.34;4908141;29;20135;-77
2022/08/28 04:53:07;;;;;;;20.17;6.60;;;;;;;15.90;81.71;101160.56;4905636;29;20079;-75
2022/08/28 04:55:34;;;;;;;17.40;6.78;;;;;;;15.90;81.76;101159.72;4906094;29;20091;-77
2022/08/28 04:58:00;;;;;;;18.25;6.07;;;;;;;15.89;81.73;101173.94;4907780;29;20162;-77
2022/08/28 05:00:27;;;;;;;16.60;6.13;;;;;;;15.88;81.79;101174.91;4906241;29;20530;-78
2022/08/28 05:02:54;;;;;;;12.20;5.70;;;;;;;15.90;81.71;101180.84;4906972;29;20107;-76
2022/08/28 05:05:22;;;;;;;14.88;6.18;;;;;;;15.89;81.75;101176.56;4909131;29;20087;-77
2022/08/28 05:07:49;;;;;;;15.40;7.28;;;;;;;15.87;81.93;101175.91;4908049;29;20100;-78
2022/08/28 05:10:16;;;;;;;17.70;6.30;;;;;;;15.91;81.94;101171.94;4906190;29;20092;-78
2022/08/28 05:12:45;;;;;;;13.50;6.13;;;;;;;16.00;81.39;101175.31;4903809;29;20135;-78
2022/08/28 05:15:12;;;;;;;12.77;6.30;;;;;;;15.97;81.47;101181.78;4908915;29;20072;-79
2022/08/28 05:17:39;;;;;;;13.63;6.18;;;;;;;16.02;81.57;101178.59;4922509;29;20056;-77
2022/08/28 05:20:07;;;;;;;15.23;6.75;;;;;;;16.03;81.04;101174.97;4922423;29;20087;-77
2022/08/28 05:22:35;;;;;;;15.10;6.78;;;;;;;16.13;81.02;101184.25;4922457;29;20052;-78
2022/08/28 05:25:01;;;;;;;14.98;6.07;;;;;;;16.10;80.61;101187.25;4918416;29;20052;-77
2022/08/28 05:27:31;;;;;;;13.65;6.85;;;;;;;16.09;80.81;101179.50;4903416;29;20484;-77
2022/08/28 05:29:58;;;;;;;16.52;6.43;;;;;;;16.10;80.73;101181.16;4903098;29;20561;-78
2022/08/28 05:32:24;;;;;;;12.90;6.13;;;;;;;16.05;80.79;101194.09;4921416;29;20095;-75
2022/08/28 05:34:51;;;;;;;15.90;5.95;;;;;;;16.10;80.91;101192.53;4921438;29;20087;-76
2022/08/28 05:37:17;;;;;;;17.73;6.68;;;;;;;16.19;80.83;101191.47;4921551;29;20445;-77
2022/08/28 05:39:45;;;;;;;17.92;6.85;;;;;;;16.24;80.34;101204.13;4910293;29;20582;-78
2022/08/28 05:42:12;;;;;;;16.75;6.53;;;;;;;16.29;80.10;101199.16;4902682;29;20475;-77
2022/08/28 05:44:39;;;;;;;15.10;7.72;;;;;;;16.38;79.52;101198.06;4901761;29;20087;-77
2022/08/28 05:47:07;;;;;;;14.00;6.20;;;;;;;16.26;79.82;101202.13;4918083;29;20605;-78
2022/08/28 05:49:34;;;;;;;17.67;6.15;;;;;;;16.30;79.68;101203.44;4921409;29;20083;-78
2022/08/28 05:52:01;;;;;;;18.33;6.15;;;;;;;16.41;79.63;101205.63;4921324;29;20135;-77
2022/08/28 05:54:28;;;;;;;16.83;7.35;;;;;;;16.46;79.23;101216.50;4912659;29;20059;-77
2022/08/28 05:56:56;;;;;;;15.98;6.03;;;;;;;16.35;79.40;101218.72;4902659;29;20187;-78
2022/08/28 05:59:24;;;;;;;15.65;6.78;;;;;;;16.41;79.53;101215.38;4899452;29;20136;-77
2022/08/28 06:01:51;;;;;;;11.57;6.25;;;;;;;16.53;79.20;101208.66;4911351;29;20048;-76
2022/08/28 06:04:29;;;;;;;14.07;6.38;;;;;;;16.66;78.70;101211.50;4918474;29;20044;-78
2022/08/28 06:06:56;;;;;;;12.63;6.13;;;;;;;16.68;78.49;101222.72;4920378;29;20064;-78
2022/08/28 06:09:25;;;;;;;13.10;6.20;;;;;;;16.73;78.37;101220.34;4916353;29;20544;-80
2022/08/28 06:11:54;;;;;;;21.67;5.90;;;;;;;16.65;77.88;101220.44;4902020;29;20397;-79
2022/08/28 06:14:22;;;;;;;13.95;5.40;;;;;;;16.73;77.50;101230.09;4901618;29;20079;-78
2022/08/28 06:16:52;;;;;;;16.63;7.15;;;;;;;16.67;77.83;101229.00;4916291;29;20135;-80
2022/08/28 06:19:26;;;;;;;18.52;5.72;;;;;;;16.59;78.15;101236.97;4920719;29;20052;-78
2022/08/28 06:21:55;;;;;;;15.45;6.03;;;;;;;16.55;78.13;101222.47;4919882;29;20131;-77
2022/08/28 06:24:23;;;;;;;14.00;6.10;;;;;;;16.81;77.77;101237.94;4917549;29;20048;-77
2022/08/28 06:26:50;;;;;;;12.70;6.00;;;;;;;16.72;77.66;101237.22;4919817;29;20143;-79
2022/08/28 06:29:18;;;;;;;16.00;5.85;;;;;;;16.67;77.81;101241.41;4918164;29;20080;-77
2022/08/28 06:31:46;;;;;;;14.60;6.70;;;;;;;16.76;77.98;101240.31;4917782;29;20104;-78
2022/08/28 06:34:13;;;;;;;14.43;5.43;;;;;;;16.62;77.87;101257.75;4917970;29;20080;-78
2022/08/28 06:36:43;;;;;;;11.82;5.05;;;;;;;16.72;77.82;101257.53;4918859;29;20059;-79
2022/08/28 06:39:11;;;;;;;18.55;6.45;;;;;;;16.69;77.83;101252.59;4911963;29;20097;-78
2022/08/28 06:41:41;;;;;;;14.90;5.50;;;;;;;16.74;77.84;101253.72;4899369;29;20537;-77
2022/08/28 06:44:08;;;;;;;16.30;5.38;;;;;;;16.94;76.96;101253.19;4899708;29;20049;-76
2022/08/28 06:46:37;;;;;;;12.35;5.28;;;;;;;16.77;77.30;101253.34;4910932;29;20131;-76
2022/08/28 06:49:07;;;;;;;12.00;5.18;;;;;;;16.81;77.44;101264.38;4918324;29;20048;-78
2022/08/28 06:51:34;;;;;;;15.98;5.53;;;;;;;16.79;77.38;101253.97;4918272;29;20146;-78
2022/08/28 06:54:01;;;;;;;12.05;5.13;;;;;;;16.96;77.03;101261.75;4914019;29;20148;-79
2022/08/28 06:56:28;;;;;;;11.15;4.70;;;;;;;16.82;77.02;101250.97;4899103;29;20135;-79
2022/08/28 06:58:58;;;;;;;12.82;5.10;;;;;;;16.79;77.31;101261.91;4899394;29;20064;-78
2022/08/28 07:01:27;;;;;;;19.50;5.85;;;;;;;16.86;77.34;101254.91;4908310;29;20067;-77
2022/08/28 07:03:58;;;;;;;15.52;6.20;;;;;;;16.90;77.17;101261.47;4916777;29;20410;-78
2022/08/28 07:06:27;;;;;;;13.27;5.05;;;;;;;17.13;76.54;101263.19;4943724;23;20107;-79
2022/08/28 07:08:53;;;;;;;18.70;5.88;;;;;;;17.07;76.24;101250.69;4921004;29;20155;-78
2022/08/28 07:11:23;;;;;;;14.13;5.35;;;;;;;17.29;76.10;101262.16;4939690;29;20200;-79
2022/08/28 07:13:52;;;;;;;13.32;4.88;;;;;;;17.49;75.71;101263.22;4940165;29;20512;-79
2022/08/28 07:16:21;;;;;;;14.95;5.40;;;;;;;17.64;74.73;101261.34;4937339;29;20135;-79
2022/08/28 07:18:47;;;;;;;11.95;4.78;;;;;;;17.40;75.34;101265.16;4939190;29;20089;-79
2022/08/28 07:21:14;;;;;;;14.05;4.95;;;;;;;17.35;75.34;101262.25;4939990;29;20048;-77
2022/08/28 07:23:43;;;;;;;13.98;5.00;;;;;;;17.42;75.45;101268.44;4940191;29;20056;-80
2022/08/28 07:26:12;;;;;;;16.52;5.38;;;;;;;17.64;74.46;101264.00;4923703;29;20059;-79
2022/08/28 07:28:40;;;;;;;14.18;5.30;;;;;;;17.92;73.86;101256.19;4921385;29;20106;-80
2022/08/28 07:31:09;;;;;;;16.00;5.05;;;;;;;18.04;73.11;101259.16;4930163;29;20119;-80
2022/08/28 07:33:39;;;;;;;17.25;5.05;;;;;;;18.16;72.47;101255.81;4940004;29;20047;-79
2022/08/28 07:36:08;;;;;;;14.32;4.72;;;;;;;18.37;72.17;101268.22;4924954;29;20056;-79
2022/08/28 07:38:35;;;;;;;15.25;5.43;;;;;;;18.40;71.62;101264.38;4920695;29;20080;-80
2022/08/28 07:41:11;;;;;;;14.25;5.53;;;;;;;18.01;72.39;101265.63;4920007;29;20102;-78
2022/08/28 07:46:22;;;;;;;13.70;4.53;;;;;;;17.82;72.82;101266.28;4931850;29;20078;-79
2022/08/28 07:48:49;;;;;;;17.33;4.93;;;;;;;17.62;73.69;101273.97;4940386;29;20083;-81
2022/08/28 07:51:16;;;;;;;12.50;5.28;;;;;;;17.89;72.95;101261.88;4939429;29;20087;-80
2022/08/28 07:53:42;;;;;;;16.75;4.95;;;;;;;17.92;72.76;101274.75;4938198;29;20078;-80
2022/08/28 07:56:11;;;;;;;12.32;5.20;;;;;;;18.13;72.27;101281.84;4920245;29;20095;-81
2022/08/28 07:58:39;;;;;;;12.23;5.13;;;;;;;18.23;71.98;101279.69;4921275;29;20052;-79
2022/08/28 08:01:06;;;;;;;11.32;4.75;;;;;;;18.44;71.74;101289.44;4922209;29;20187;-80
2022/08/28 08:03:33;;;;;;;18.10;4.88;;;;;;;18.45;71.03;101276.00;4927954;29;20147;-79
2022/08/28 08:06:03;;;;;;;14.10;5.35;;;;;;;18.46;71.04;101282.13;4938169;29;20051;-80
2022/08/28 08:08:32;;;;;;;13.10;5.13;;;;;;;18.27;71.25;101288.09;4935494;29;20494;-80
2022/08/28 08:11:01;;;;;;;10.10;4.65;;;;;;;18.45;71.21;101291.91;4919303;29;20478;-78
2022/08/28 08:13:30;;;;;;;11.77;5.00;;;;;;;18.73;70.15;101285.84;4936020;29;20039;-79
2022/08/28 08:16:00;;;;;;;17.10;5.95;;;;;;;19.37;68.42;101275.78;4933501;29;20111;-81
2022/08/28 08:18:30;;;;;;;13.02;4.13;;;;;;;18.93;68.49;101273.50;4921493;29;20095;-81
2022/08/28 08:20:56;;;;;;;12.25;4.43;;;;;;;18.79;69.13;101283.22;4918423;29;20092;-81
2022/08/28 08:23:23;;;;;;;8.93;4.57;;;;;;;18.91;68.67;101283.47;4917901;29;20091;-79
2022/08/28 08:25:57;;;;;;;15.60;4.50;;;;;;;18.99;68.33;101282.53;4935169;29;20111;-80
2022/08/28 08:28:26;;;;;;;14.23;4.70;;;;;;;19.12;68.07;101282.59;4937237;29;20075;-80
2022/08/28 08:31:04;;;;;;;13.75;5.10;;;;;;;19.60;67.13;101274.66;4939079;29;20058;-81
2022/08/28 08:33:31;;;;;;;12.35;4.78;;;;;;;19.27;66.84;101278.00;4940602;29;20086;-80
2022/08/28 08:35:57;;;;;;;12.77;4.43;;;;;;;19.33;67.13;101274.53;4939411;29;20070;-80
2022/08/28 08:38:24;;;;;;;9.07;4.65;;;;;;;20.18;65.93;101268.66;4941295;29;20086;-80
2022/08/28 08:40:51;;;;;;;14.93;4.78;;;;;;;20.15;65.60;101271.72;4941811;29;20507;-80
2022/08/28 08:43:20;;;;;;;12.82;5.10;;;;;;;20.01;65.39;101277.22;4940044;29;20091;-80
2022/08/28 08:45:49;;;;;;;14.80;4.85;;;;;;;20.55;64.98;101274.38;4940175;29;20075;-80
2022/08/28 08:48:25;;;;;;;13.55;4.97;;;;;;;21.15;62.77;101275.09;4944100;29;20079;-78
2022/08/28 08:50:54;;;;;;;13.45;5.15;;;;;;;21.45;61.74;101270.91;4943181;29;20592;-79
2022/08/28 08:53:29;;;;;;;11.55;4.68;;;;;;;21.50;61.63;101279.06;4943720;29;20055;-79
2022/08/28 08:55:58;;;;;;;14.35;5.63;;;;;;;20.76;62.99;101279.50;4943696;29;20079;-80
2022/08/28 08:58:30;;;;;;;11.90;4.53;;;;;;;20.64;64.01;101289.13;4941345;29;20079;-81
2022/08/28 09:01:04;;;;;;;10.90;4.25;;;;;;;20.49;64.08;101283.19;4936340;29;20052;-79
2022/08/28 09:03:47;;;;;;;12.25;4.57;;;;;;;20.38;64.19;101281.94;4922874;29;20080;-79
2022/08/28 09:06:21;;;;;;;15.68;5.20;;;;;;;20.68;63.63;101278.88;4921972;29;20048;-78
2022/08/28 09:08:56;;;;;;;13.43;4.57;;;;;;;21.48;61.37;101273.13;4923565;29;20052;-78
2022/08/28 09:11:34;;;;;;;14.18;4.82;;;;;;;21.28;59.57;101275.06;4903999;29;20079;-79
2022/08/28 09:14:10;;;;;;;10.15;4.82;;;;;;;20.85;60.78;101275.56;4902320;29;20084;-77
2022/08/28 09:16:40;;;;;;;10.13;4.20;;;;;;;21.08;60.40;101283.09;4927635;29;20052;-81
2022/08/28 09:19:12;;;;;;;16.67;4.70;;;;;;;20.63;59.90;101276.03;4940176;29;20457;-81
2022/08/28 09:21:41;;;;;;;10.90;4.20;;;;;;;20.98;59.53;101281.88;4941395;29;20123;-78
2022/08/28 09:24:16;;;;;;;10.40;4.40;;;;;;;21.01;59.92;101286.78;4937855;29;20044;-79
2022/08/28 09:26:42;;;;;;;15.85;4.80;;;;;;;21.38;58.57;101283.41;4922743;29;20071;-80
2022/08/28 09:29:18;;;;;;;11.55;5.25;;;;;;;20.81;60.64;101295.63;4923783;29;20091;-80
2022/08/28 09:31:45;;;;;;;11.85;4.22;;;;;;;20.48;59.85;101286.88;4919687;29;20087;-81
2022/08/28 09:34:29;;;;;;;10.55;4.20;;;;;;;20.81;59.53;101279.66;4929877;29;20052;-81
2022/08/28 09:36:57;;;;;;;13.60;4.22;;;;;;;21.31;58.42;101277.28;4920566;29;20128;-80
2022/08/28 09:39:25;;;;;;;11.93;4.30;;;;;;;21.19;58.53;101286.94;4925074;29;20066;-80
2022/08/28 09:44:57;;;;;;;11.95;4.80;;;;;;;20.92;59.09;101286.19;4939979;29;20082;-80
2022/08/28 09:47:35;;;;;;;13.65;4.22;;;;;;;20.69;59.78;101277.88;4924234;29;20083;-81
2022/08/28 09:50:19;;;;;;;9.73;4.10;;;;;;;20.50;60.34;101268.88;4922930;29;20144;-79
2022/08/28 09:52:46;;;;;;;12.15;4.32;;;;;;;20.61;60.28;101278.06;4921315;29;20087;-78
2022/08/28 09:55:22;;;;;;;10.82;4.35;;;;;;;20.94;60.06;101272.69;4928745;29;20075;-79
2022/08/28 09:57:48;;;;;;;10.63;4.45;;;;;;;20.96;59.19;101270.63;4939022;29;20052;-80
2022/08/28 10:00:15;;;;;;;14.35;4.55;;;;;;;21.15;59.05;101272.44;4920770;29;20131;-79
2022/08/28 10:02:48;;;;;;;9.50;3.95;;;;;;;21.44;57.79;101263.94;4918036;29;20072;-78
2022/08/28 10:05:18;;;;;;;;;;;;;;;21.44;57.91;101268.44;4919337;29;20062;-77
2022/08/28 10:07:51;;;;;;;11.80;4.60;;;;;;;21.07;58.26;101272.66;4920300;29;20439;-79
2022/08/28 10:10:32;;;;;;;12.10;4.43;;;;;;;21.31;57.74;101261.31;4927914;29;20101;-79
2022/08/28 10:13:05;;;;;;;11.13;4.10;;;;;;;21.77;57.28;101263.75;4927809;29;20076;-80
2022/08/28 10:15:44;;;;;;;7.80;4.18;;;;;;;21.65;56.87;101275.31;4918515;29;20075;-78
2022/08/28 10:18:25;;;;;;;9.95;3.75;;;;;;;21.22;55.99;101257.28;4938961;29;20449;-79
2022/08/28 10:21:02;;;;;;;8.95;4.38;;;;;;;21.59;55.74;101262.84;4931725;29;20540;-78
2022/08/28 10:23:41;;;;;;;12.95;4.35;;;;;;;21.91;54.63;101261.00;4918606;29;20048;-79
2022/08/28 10:26:29;;;;;;;9.25;3.97;;;;;;;21.79;53.54;101274.19;4934331;29;20127;-80
2022/08/28 10:29:07;;;;;;;7.65;3.80;;;;;;;21.74;54.56;101263.38;4914921;29;20693;-80
2022/08/28 10:31:43;;;;;;;6.88;3.72;;;;;;;22.02;54.97;101277.16;4902797;29;20049;-78
2022/08/28 10:34:27;;;;;;;12.18;4.53;;;;;;;22.25;55.02;101270.41;4908997;29;20067;-79
2022/08/28 10:37:03;;;;;;;8.63;4.03;;;;;;;21.90;55.58;101283.34;4904610;29;20059;-79
2022/08/28 10:39:42;;;;;;;8.43;4.15;;;;;;;21.85;54.18;101273.34;4919257;29;20063;-79
2022/08/28 10:42:10;;;;;;;6.50;3.70;;;;;;;21.91;54.15;101267.16;4923117;29;20063;-81
2022/08/28 10:44:55;;;;;;;12.45;4.30;;;;;;;21.71;54.70;101263.81;4913130;29;20152;-80
2022/08/28 10:47:24;;;;;;;8.02;3.70;;;;;;;21.88;54.62;101270.25;4941511;29;20097;-80
2022/08/28 10:50:00;;;;;;;8.77;4.20;;;;;;;22.17;53.99;101269.69;4942401;29;20122;-79
2022/08/28 10:52:34;;;;;;;9.38;3.92;;;;;;;21.82;52.03;101277.25;4942678;29;20563;-82
2022/08/28 10:55:05;;;;;;;8.82;4.07;;;;;;;21.78;52.73;101269.88;4918098;29;20581;-80
2022/08/28 10:57:35;;;;;;;9.18;4.40;;;;;;;22.42;53.30;101264.31;4908404;29;20080;-80
2022/08/28 11:00:08;;;;;;;8.82;4.20;;;;;;;22.28;53.22;101269.97;4920698;29;20062;-80
2022/08/28 11:02:36;;;;;;;9.45;4.15;;;;;;;21.98;54.61;101270.59;4927913;29;20055;-81
2022/08/28 11:05:04;;;;;;;6.90;4.32;;;;;;;22.00;55.12;101273.03;4928008;29;20195;-80
2022/08/28 11:07:36;;;;;;;12.98;4.20;;;;;;;22.25;54.85;101265.91;4927610;29;20100;-79
2022/08/28 11:10:23;;;;;;;8.70;4.38;;;;;;;22.13;54.10;101267.66;4915211;29;20488;-79
2022/08/28 11:12:52;;;;;;;9.85;4.13;;;;;;;22.13;55.32;101263.13;4918098;29;20060;-80
2022/08/28 11:15:41;;;;;;;12.10;4.72;;;;;;;22.44;54.79;101269.44;4926848;29;20066;-79
2022/08/28 11:18:38;;;;;;;9.23;4.20;;;;;;;21.93;54.78;101265.09;4909023;29;20088;-79
2022/08/28 11:21:12;;;;;;;12.15;4.30;;;;;;;22.38;54.28;101262.31;4905210;29;20077;-80
2022/08/28 11:23:48;;;;;;;8.05;4.07;;;;;;;22.21;55.06;101269.25;4907837;29;20088;-80
2022/08/28 11:26:28;;;;;;;10.75;4.70;;;;;;;22.55;53.93;101263.41;4925998;29;20091;-79
2022/08/28 11:28:55;;;;;;;11.90;4.32;;;;;;;22.66;53.76;101267.19;4907450;29;20525;-81
2022/08/28 11:31:34;;;;;;;9.82;4.28;;;;;;;22.68;53.08;101265.94;4907040;29;20079;-80
2022/08/28 11:34:01;;;;;;;9.15;3.85;;;;;;;22.64;52.77;101264.75;4906765;29;20087;-80
2022/08/28 11:37:00;;;;;;;11.68;4.55;;;;;;;22.65;52.35;101273.56;4924618;29;20135;-80
2022/08/28 11:39:29;;;;;;;10.63;4.30;;;;;;;22.48;53.04;101273.31;4923642;29;20083;-79